Campos Lindos, Brazil
Current Conditions -  °F | °C
As of 4:15 AM on Friday 28 Nov 2014 (Local Time) from SBIZ Reporting Station
Haze Haze  
Wind Chill: 77°   Ceiling: Unl
Heat Index: 78°   Visibility: 3mi
Dew Point: 75°   Wind: 6mph
Humidity: 94%   Direction: 340°NNW
Pressure: 29.83"   Gusts: NA
Location:  7.99°S, 46.87°W
Report Text: SBIZ 280715Z 34005KT 5000 BR FEW004 25/24 Q1010
Loading
Personal Weather Stations






























Interactive Weather Map New forecast layout! Learn more

10-Day Weather Forecast

Advertisements
Track Severe Weather on mobile